Time;durP1;ratioP1;P1;durP2;ratioP2;P2;SDS_P1;SDS_P2;PMS_P1;PMS_P2;Temp;Humidity;BMP_temperature;BMP_pressure;BME280_temperature;BME280_humidity;BME280_pressure;Samples;Min_cycle;Max_cycle;Signal;HPM_P1;HPM_P2
2021/12/15 00:00:29;;;;;;;69.65;30.58;;;;;;;8.69;100.00;102891.09;5056590;28;20150;-72
2021/12/15 00:02:59;;;;;;;74.70;30.20;;;;;;;8.71;100.00;102888.47;5054787;28;20051;-72
2021/12/15 00:05:27;;;;;;;60.00;29.35;;;;;;;8.69;100.00;102883.13;5057897;28;20057;-72
2021/12/15 00:07:59;;;;;;;66.55;30.70;;;;;;;8.68;100.00;102881.31;5053798;28;20072;-72
2021/12/15 00:10:28;;;;;;;72.60;33.92;;;;;;;8.68;100.00;102891.97;5056632;28;20053;-71
2021/12/15 00:12:57;;;;;;;71.78;30.30;;;;;;;8.65;100.00;102886.66;5056315;28;20044;-71
2021/12/15 00:15:27;;;;;;;74.72;32.45;;;;;;;8.67;100.00;102889.31;5058000;28;20057;-71
2021/12/15 00:17:55;;;;;;;63.17;28.02;;;;;;;8.66;100.00;102885.75;5055633;28;20056;-71
2021/12/15 00:20:25;;;;;;;67.60;31.23;;;;;;;8.66;100.00;102885.75;5056613;28;20634;-71
2021/12/15 00:22:54;;;;;;;68.13;30.20;;;;;;;8.68;100.00;102888.44;5053855;28;20087;-72
2021/12/15 00:25:25;;;;;;;65.22;29.60;;;;;;;8.72;100.00;102879.63;5058734;28;20076;-72
2021/12/15 00:27:53;;;;;;;62.60;28.25;;;;;;;8.72;100.00;102879.63;5054638;28;20382;-71
2021/12/15 00:30:22;;;;;;;61.70;29.55;;;;;;;8.68;100.00;102881.31;5055186;28;20052;-71
2021/12/15 00:32:51;;;;;;;68.57;28.85;;;;;;;8.69;100.00;102880.47;5055484;28;20071;-71
2021/12/15 00:35:20;;;;;;;61.53;30.50;;;;;;;8.68;100.00;102876.00;5055669;28;20252;-71
2021/12/15 00:37:50;;;;;;;60.80;25.88;;;;;;;8.66;100.00;102874.22;5053005;28;20139;-71
2021/12/15 00:40:21;;;;;;;66.78;29.15;;;;;;;8.67;100.00;102873.34;5058774;28;20052;-71
2021/12/15 00:42:49;;;;;;;65.72;28.10;;;;;;;8.69;100.00;102879.59;5058073;28;20271;-72
2021/12/15 00:45:17;;;;;;;55.90;26.23;;;;;;;8.67;100.00;102876.91;5054733;28;20099;-73
2021/12/15 00:47:45;;;;;;;59.17;28.00;;;;;;;8.66;100.00;102877.78;5057740;28;20139;-71
2021/12/15 00:50:15;;;;;;;62.08;27.65;;;;;;;8.66;100.00;102874.22;5053721;28;20052;-72
2021/12/15 00:52:46;;;;;;;59.60;25.88;;;;;;;8.65;100.00;102884.00;5053472;28;20044;-71
2021/12/15 00:55:19;;;;;;;64.22;26.75;;;;;;;8.68;100.00;102883.09;5052291;28;20167;-69
2021/12/15 00:57:48;;;;;;;64.40;27.83;;;;;;;8.65;100.00;102883.06;5054562;28;20049;-69
2021/12/15 01:00:21;;;;;;;65.47;26.75;;;;;;;8.71;100.00;102878.69;5056227;28;20054;-69
2021/12/15 01:02:50;;;;;;;60.28;25.40;;;;;;;8.71;100.00;102878.69;5054873;28;20073;-69
2021/12/15 01:05:20;;;;;;;63.00;28.42;;;;;;;8.68;100.00;102875.13;5053683;28;20122;-69
2021/12/15 01:07:49;;;;;;;67.82;30.45;;;;;;;8.67;100.00;102881.34;5055896;28;20524;-69
2021/12/15 01:10:26;;;;;;;62.67;28.77;;;;;;;8.69;100.00;102882.25;5051906;28;20572;-69
2021/12/15 01:14:32;;;;;;;72.57;29.15;;;;;;;8.73;100.00;102879.59;5048378;28;20685;-70
2021/12/15 01:21:27;;;;;;;60.58;25.88;;;;;;;8.63;100.00;102880.41;5053809;28;20053;-70
2021/12/15 01:23:54;;;;;;;57.10;26.05;;;;;;;8.63;100.00;102880.41;5054073;28;20135;-70
2021/12/15 01:26:24;;;;;;;61.70;27.15;;;;;;;8.62;100.00;102881.28;5054967;28;20101;-69
2021/12/15 01:28:51;;;;;;;62.75;26.90;;;;;;;8.63;100.00;102880.41;5055005;28;20040;-70
2021/12/15 01:31:20;;;;;;;57.45;25.85;;;;;;;8.65;100.00;102880.41;5051689;28;20055;-70
2021/12/15 01:33:48;;;;;;;55.55;24.95;;;;;;;8.60;100.00;102878.63;5054897;28;21859;-72
2021/12/15 01:36:17;;;;;;;64.28;26.83;;;;;;;8.65;100.00;102880.41;5052240;28;20052;-70
2021/12/15 01:38:47;;;;;;;51.92;24.23;;;;;;;8.63;100.00;102884.84;5054500;28;20099;-70
2021/12/15 01:41:22;;;;;;;55.53;24.65;;;;;;;8.66;100.00;102888.41;5053918;28;20517;-69
2021/12/15 01:46:59;;;;;;;60.38;24.80;;;;;;;8.66;100.00;102884.88;5037565;28;20168;-69
2021/12/15 01:49:36;;;;;;;52.40;22.77;;;;;;;8.67;100.00;102894.66;5039431;28;20543;-71
2021/12/15 01:52:10;;;;;;;56.80;23.58;;;;;;;8.66;100.00;102895.50;5052302;28;20132;-71
2021/12/15 01:54:40;;;;;;;54.83;22.52;;;;;;;8.68;100.00;102899.97;5054416;28;20084;-71
2021/12/15 01:57:11;;;;;;;63.25;25.85;;;;;;;8.66;100.00;102900.84;5053801;28;20054;-72
2021/12/15 01:59:41;;;;;;;51.42;22.52;;;;;;;8.69;100.00;102904.41;5055540;28;20094;-71
2021/12/15 02:02:09;;;;;;;51.63;22.48;;;;;;;8.66;100.00;102896.41;5052956;28;20052;-71
2021/12/15 02:04:38;;;;;;;52.60;22.25;;;;;;;8.69;100.00;102908.84;5052629;28;20138;-71
2021/12/15 02:07:11;;;;;;;54.20;23.42;;;;;;;8.67;100.00;102906.19;5051530;28;20049;-71
2021/12/15 02:10:01;;;;;;;55.20;23.08;;;;;;;8.66;100.00;102908.81;5055679;28;20041;-71
2021/12/15 02:12:50;;;;;;;52.85;23.58;;;;;;;8.66;100.00;102912.38;5053937;28;20426;-71
2021/12/15 02:15:23;;;;;;;61.30;25.48;;;;;;;8.68;100.00;102912.38;5054491;28;20158;-71
2021/12/15 02:17:51;;;;;;;50.17;23.13;;;;;;;8.64;100.00;102908.81;5052491;28;20052;-71
2021/12/15 02:20:27;;;;;;;51.65;21.95;;;;;;;8.65;100.00;102907.94;5056998;28;20059;-71
2021/12/15 02:22:55;;;;;;;51.75;22.88;;;;;;;8.66;100.00;102908.81;5053062;28;20830;-71
2021/12/15 02:25:23;;;;;;;49.08;21.88;;;;;;;8.65;100.00;102915.00;5053701;28;20171;-71
2021/12/15 02:27:51;;;;;;;54.08;23.38;;;;;;;8.66;100.00;102909.72;5054039;28;20135;-71
2021/12/15 02:30:41;;;;;;;46.80;21.77;;;;;;;8.69;100.00;102908.84;5055308;28;20044;-71
2021/12/15 02:33:35;;;;;;;50.95;21.67;;;;;;;8.67;100.00;102915.94;5052124;28;20135;-71
2021/12/15 02:38:47;;;;;;;49.95;21.85;;;;;;;8.68;100.00;102913.25;5053579;28;20048;-72
2021/12/15 02:41:21;;;;;;;47.45;21.00;;;;;;;8.69;100.00;102914.19;5052147;28;20098;-71
2021/12/15 02:43:49;;;;;;;46.47;21.98;;;;;;;8.68;100.00;102912.38;5052021;28;20076;-71
2021/12/15 02:46:17;;;;;;;50.03;21.67;;;;;;;8.67;100.00;102913.28;5056059;28;20061;-71
2021/12/15 02:48:45;;;;;;;48.47;21.65;;;;;;;8.66;100.00;102915.03;5051765;28;20075;-71
2021/12/15 02:51:16;;;;;;;58.95;24.92;;;;;;;8.68;100.00;102915.03;5055303;28;20061;-71
2021/12/15 02:53:44;;;;;;;47.05;21.77;;;;;;;8.67;100.00;102905.31;5052021;28;20522;-71
2021/12/15 02:56:14;;;;;;;50.42;25.17;;;;;;;8.66;100.00;102917.69;5053487;28;20629;-71
2021/12/15 02:58:50;;;;;;;52.78;22.70;;;;;;;8.68;100.00;102910.59;5055499;28;20485;-71
2021/12/15 03:01:29;;;;;;;51.78;21.77;;;;;;;8.68;100.00;102917.72;5052767;28;20144;-71
2021/12/15 03:04:13;;;;;;;51.83;23.52;;;;;;;8.68;100.00;102915.03;5055509;28;20082;-71
2021/12/15 03:06:50;;;;;;;55.20;22.83;;;;;;;8.66;100.00;102914.16;5050725;28;20094;-71
2021/12/15 03:17:34;;;;;;;51.28;23.45;;;;;;;8.68;100.00;102915.03;5050442;28;20056;-70
2021/12/15 03:20:02;;;;;;;53.58;23.80;;;;;;;8.67;100.00;102916.81;5054087;28;20051;-70
2021/12/15 03:22:32;;;;;;;52.30;23.77;;;;;;;8.67;100.00;102913.28;5049664;28;20424;-70
2021/12/15 03:25:00;;;;;;;53.85;22.40;;;;;;;8.67;100.00;102911.50;5053356;28;20056;-70
2021/12/15 03:33:17;;;;;;;52.80;22.85;;;;;;;8.67;100.00;102914.16;5051647;28;20095;-72
2021/12/15 03:36:05;;;;;;;49.80;22.08;;;;;;;8.67;100.00;102916.81;4988690;28;20076;-72
2021/12/15 03:38:35;;;;;;;57.50;24.63;;;;;;;8.69;100.00;102916.84;5040606;28;20059;-72
2021/12/15 03:41:05;;;;;;;50.85;22.67;;;;;;;8.67;100.00;102916.81;5054371;28;20045;-72
2021/12/15 03:43:34;;;;;;;53.25;22.73;;;;;;;8.67;100.00;102913.28;5051647;28;20173;-72
2021/12/15 03:46:06;;;;;;;64.90;23.80;;;;;;;8.67;100.00;102922.16;5053056;28;20084;-72
2021/12/15 03:48:37;;;;;;;49.80;22.25;;;;;;;8.68;100.00;102923.91;5053602;28;20060;-72
2021/12/15 03:51:13;;;;;;;50.10;22.83;;;;;;;8.70;100.00;102922.19;5047237;28;20106;-73
2021/12/15 03:53:43;;;;;;;55.35;22.48;;;;;;;8.66;100.00;102928.34;5052729;28;20577;-72
2021/12/15 03:56:14;;;;;;;49.15;22.38;;;;;;;8.66;100.00;102931.00;5051485;28;20283;-72
2021/12/15 03:58:42;;;;;;;53.15;23.27;;;;;;;8.66;100.00;102932.78;5051779;28;20287;-72
2021/12/15 04:01:13;;;;;;;51.63;23.23;;;;;;;8.68;100.00;102933.69;5051783;28;20052;-72
2021/12/15 04:03:46;;;;;;;52.20;23.13;;;;;;;8.67;100.00;102927.47;5051943;28;20064;-72
2021/12/15 04:06:18;;;;;;;55.87;23.13;;;;;;;8.67;100.00;102927.47;5051050;28;20140;-72
2021/12/15 04:08:48;;;;;;;56.13;23.92;;;;;;;8.66;100.00;102931.00;5054319;28;20076;-72
2021/12/15 04:11:19;;;;;;;52.83;21.98;;;;;;;8.68;100.00;102934.56;5056378;28;20514;-72
2021/12/15 04:13:48;;;;;;;53.17;23.80;;;;;;;8.67;100.00;102934.56;5055734;28;20094;-72
2021/12/15 04:16:41;;;;;;;58.67;23.48;;;;;;;8.69;100.00;102939.00;5057314;28;20057;-71
2021/12/15 04:19:11;;;;;;;55.40;23.88;;;;;;;8.71;100.00;102939.03;5053366;28;20053;-72
2021/12/15 04:21:40;;;;;;;45.97;21.58;;;;;;;8.72;100.00;102938.16;5056425;28;20136;-72
2021/12/15 04:24:12;;;;;;;54.85;22.58;;;;;;;8.72;100.00;102939.06;5055941;28;20127;-72
2021/12/15 04:26:41;;;;;;;60.67;24.75;;;;;;;8.77;100.00;102945.31;5057886;28;20496;-72
2021/12/15 04:29:09;;;;;;;57.42;22.63;;;;;;;8.73;100.00;102938.16;5054285;28;20135;-73
2021/12/15 04:31:41;;;;;;;58.58;23.08;;;;;;;8.76;100.00;102938.19;5055879;28;20056;-71
2021/12/15 04:34:11;;;;;;;56.47;23.27;;;;;;;8.75;100.00;102940.84;5056167;28;20052;-71
2021/12/15 04:36:42;;;;;;;64.30;24.17;;;;;;;8.73;100.00;102932.84;5057934;28;20052;-70
2021/12/15 04:39:21;;;;;;;58.03;22.05;;;;;;;8.72;100.00;102946.16;5056389;28;20041;-71
2021/12/15 04:41:52;;;;;;;57.42;23.02;;;;;;;8.76;100.00;102939.97;5055143;28;20151;-70
2021/12/15 04:44:22;;;;;;;51.78;22.35;;;;;;;8.76;100.00;102943.50;5053111;28;20072;-69
2021/12/15 04:47:00;;;;;;;58.78;22.73;;;;;;;8.71;100.00;102941.69;5056766;28;20739;-69
2021/12/15 04:49:34;;;;;;;61.38;23.65;;;;;;;8.74;100.00;102945.28;5055081;28;20059;-69
2021/12/15 04:52:03;;;;;;;54.15;21.80;;;;;;;8.73;100.00;102946.13;5055028;28;20048;-69
2021/12/15 04:54:33;;;;;;;61.22;23.08;;;;;;;8.73;100.00;102943.47;5054995;28;20060;-69
2021/12/15 04:57:11;;;;;;;59.42;22.88;;;;;;;8.78;100.00;102943.53;5055408;28;20056;-69
2021/12/15 04:59:39;;;;;;;57.92;21.77;;;;;;;8.75;100.00;102933.75;5054622;28;20068;-69
2021/12/15 05:02:09;;;;;;;62.58;26.95;;;;;;;8.76;100.00;102940.84;5056921;28;20127;-69
2021/12/15 05:04:38;;;;;;;61.03;22.77;;;;;;;8.73;100.00;102940.81;5055421;28;20156;-69
2021/12/15 05:07:07;;;;;;;68.72;24.65;;;;;;;8.75;100.00;102948.81;5057525;28;20485;-70
2021/12/15 05:09:37;;;;;;;62.40;24.13;;;;;;;8.71;100.00;102944.34;5052998;28;20063;-69
2021/12/15 05:12:06;;;;;;;58.80;23.33;;;;;;;8.73;100.00;102948.81;5052700;28;20074;-70
2021/12/15 05:14:35;;;;;;;51.53;21.98;;;;;;;8.72;100.00;102949.69;5052602;28;20123;-69
2021/12/15 05:17:04;;;;;;;51.63;22.38;;;;;;;8.72;100.00;102948.81;5056211;28;20069;-70
2021/12/15 05:19:32;;;;;;;60.85;23.63;;;;;;;8.75;100.00;102952.41;5054073;28;20182;-71
2021/12/15 05:22:00;;;;;;;55.25;21.10;;;;;;;8.77;100.00;102952.41;5051386;28;20055;-69
2021/12/15 05:24:34;;;;;;;53.75;22.80;;;;;;;8.78;100.00;102954.19;5054973;28;20602;-71
2021/12/15 05:27:06;;;;;;;52.20;21.48;;;;;;;8.77;100.00;102950.63;5035112;28;20063;-73
2021/12/15 05:29:34;;;;;;;56.28;21.38;;;;;;;8.75;100.00;102949.72;5054677;28;20048;-73
2021/12/15 05:32:03;;;;;;;60.78;21.98;;;;;;;8.75;100.00;102947.06;5051724;28;20083;-70
2021/12/15 05:34:31;;;;;;;61.90;22.63;;;;;;;8.75;100.00;102948.81;5055201;28;20106;-70
2021/12/15 05:37:01;;;;;;;58.90;22.75;;;;;;;8.76;100.00;102947.94;5054752;28;20135;-70
2021/12/15 05:39:29;;;;;;;65.03;24.23;;;;;;;8.77;100.00;102958.63;5054239;28;20144;-70
2021/12/15 05:41:57;;;;;;;60.80;22.73;;;;;;;8.82;100.00;102952.44;5053453;28;20049;-71
2021/12/15 05:44:28;;;;;;;61.58;22.45;;;;;;;8.80;100.00;102963.06;5052696;28;20048;-71
2021/12/15 05:46:58;;;;;;;62.17;23.63;;;;;;;8.83;100.00;102956.88;5053431;28;20056;-71
2021/12/15 05:49:26;;;;;;;67.10;25.55;;;;;;;8.84;100.00;102956.91;5054299;28;20428;-71
2021/12/15 05:51:55;;;;;;;70.45;23.73;;;;;;;8.83;100.00;102957.78;5053034;28;20050;-71
2021/12/15 05:54:23;;;;;;;61.60;23.40;;;;;;;8.83;100.00;102962.22;5054071;28;20401;-71
2021/12/15 05:56:51;;;;;;;66.03;24.65;;;;;;;8.85;100.00;102971.09;5053214;28;20048;-71
2021/12/15 05:59:19;;;;;;;59.78;21.80;;;;;;;8.87;100.00;102964.00;5053489;28;20041;-71
2021/12/15 06:01:49;;;;;;;52.40;21.15;;;;;;;8.87;100.00;102967.59;5055287;28;20055;-71
2021/12/15 06:04:17;;;;;;;52.45;22.48;;;;;;;8.86;100.00;102967.56;5049096;28;20052;-72
2021/12/15 06:06:45;;;;;;;51.58;20.35;;;;;;;8.84;100.00;102967.56;5049337;28;20051;-71
2021/12/15 06:09:14;;;;;;;57.92;22.95;;;;;;;8.82;100.00;102964.00;5052331;28;20098;-71
2021/12/15 06:11:47;;;;;;;63.17;23.60;;;;;;;8.86;100.00;102967.56;5054477;28;20580;-71
2021/12/15 06:14:22;;;;;;;60.22;21.70;;;;;;;8.85;100.00;102966.66;5036297;28;20549;-71
2021/12/15 06:16:57;;;;;;;56.67;22.10;;;;;;;8.86;100.00;102967.56;5047745;28;20057;-71
2021/12/15 06:19:25;;;;;;;61.00;23.95;;;;;;;8.82;100.00;102964.00;5051379;28;20048;-71
2021/12/15 06:21:53;;;;;;;51.72;20.98;;;;;;;8.82;100.00;102977.31;5053134;28;20512;-71
2021/12/15 06:24:21;;;;;;;56.75;22.20;;;;;;;8.87;100.00;102975.56;5049255;28;20497;-72
2021/12/15 06:26:49;;;;;;;57.88;23.48;;;;;;;8.85;100.00;102971.97;5051134;28;20052;-72
2021/12/15 06:29:18;;;;;;;55.85;23.00;;;;;;;8.83;100.00;102975.53;5053211;28;20060;-72
2021/12/15 06:31:46;;;;;;;60.15;23.50;;;;;;;8.83;100.00;102978.19;5051658;28;20682;-72
2021/12/15 06:34:16;;;;;;;54.50;22.38;;;;;;;8.84;100.00;102979.97;5051431;28;20157;-72
2021/12/15 06:36:44;;;;;;;53.97;22.65;;;;;;;8.84;100.00;102991.50;5054356;28;20546;-72
2021/12/15 06:39:15;;;;;;;55.53;23.75;;;;;;;8.81;100.00;102983.50;5050488;28;20499;-72
2021/12/15 06:41:43;;;;;;;54.85;22.23;;;;;;;8.80;100.00;102989.69;5054745;28;20075;-72
2021/12/15 06:44:13;;;;;;;54.80;22.23;;;;;;;8.83;100.00;102988.84;5052017;28;20045;-72
2021/12/15 06:47:09;;;;;;;57.33;24.48;;;;;;;8.82;100.00;102992.34;5055344;28;20131;-72
2021/12/15 06:58:11;;;;;;;56.10;22.55;;;;;;;8.85;100.00;103000.38;5054992;28;20080;-72
2021/12/15 07:00:45;;;;;;;61.80;21.73;;;;;;;8.84;100.00;102999.50;5054434;28;20087;-72
2021/12/15 07:03:13;;;;;;;;;;;;;;;8.84;100.00;103004.81;5053268;28;20048;-70
2021/12/15 07:05:45;;;;;;;52.83;19.25;;;;;;;8.88;100.00;103014.63;5051391;28;20055;-70
2021/12/15 07:08:14;;;;;;;55.17;22.70;;;;;;;8.86;100.00;103016.38;5032656;28;20477;-72
2021/12/15 07:10:46;;;;;;;59.90;23.25;;;;;;;8.84;100.00;103010.16;5052437;28;20154;-72
2021/12/15 07:13:16;;;;;;;57.28;22.25;;;;;;;8.87;100.00;103010.19;5052511;28;20394;-72
2021/12/15 07:15:46;;;;;;;57.80;22.52;;;;;;;8.86;100.00;103013.72;5051714;28;20543;-70
2021/12/15 07:18:26;;;;;;;62.20;22.92;;;;;;;8.88;100.00;103014.63;5056174;28;20059;-70
2021/12/15 07:21:04;;;;;;;66.13;24.35;;;;;;;8.87;100.00;103015.50;5051464;28;20143;-72
2021/12/15 07:23:32;;;;;;;57.03;22.67;;;;;;;8.85;100.00;103017.25;5051594;28;20056;-72
2021/12/15 07:26:00;;;;;;;55.33;21.60;;;;;;;8.87;100.00;103020.84;5051912;28;20868;-72
2021/12/15 07:28:28;;;;;;;65.97;24.80;;;;;;;8.86;100.00;103013.72;5054267;28;20052;-72
2021/12/15 07:30:56;;;;;;;60.67;24.27;;;;;;;8.87;100.00;103022.59;5053712;28;20056;-72
2021/12/15 07:33:24;;;;;;;61.72;22.95;;;;;;;8.91;100.00;103024.41;5052466;28;20963;-72
2021/12/15 07:35:52;;;;;;;55.90;22.05;;;;;;;8.88;100.00;103022.59;5053243;28;20036;-72
2021/12/15 07:38:23;;;;;;;56.17;24.05;;;;;;;8.87;100.00;103023.50;5052917;28;20059;-70
2021/12/15 07:40:53;;;;;;;57.20;21.98;;;;;;;8.89;100.00;103021.75;5037440;28;20086;-70
2021/12/15 07:43:25;;;;;;;57.33;23.17;;;;;;;8.87;100.00;103026.16;5052758;28;20064;-70
2021/12/15 07:45:59;;;;;;;67.63;24.25;;;;;;;8.86;100.00;103026.16;5056387;28;20404;-69
2021/12/15 07:48:30;;;;;;;55.35;21.88;;;;;;;8.85;100.00;103019.91;5059014;28;21527;-71
2021/12/15 07:51:02;;;;;;;63.60;23.08;;;;;;;8.86;100.00;103024.38;5055020;28;20068;-69
2021/12/15 07:53:33;;;;;;;68.27;24.63;;;;;;;8.87;100.00;103026.16;5054280;28;20062;-69
2021/12/15 07:56:04;;;;;;;60.97;22.95;;;;;;;8.86;100.00;103027.03;5036565;28;20058;-69
2021/12/15 07:58:34;;;;;;;56.17;22.77;;;;;;;8.87;100.00;103034.16;5055253;28;20452;-70
2021/12/15 08:01:07;;;;;;;61.67;23.55;;;;;;;8.88;100.00;103024.38;5034974;28;20074;-70
2021/12/15 08:03:40;;;;;;;55.60;23.15;;;;;;;8.88;100.00;103033.25;5055407;28;20147;-70
2021/12/15 08:06:11;;;;;;;64.55;22.80;;;;;;;8.90;100.00;103026.16;5056501;28;20076;-70
2021/12/15 08:08:42;;;;;;;60.38;23.60;;;;;;;8.94;100.00;103025.34;5035414;28;20140;-70
2021/12/15 08:11:10;;;;;;;53.70;21.58;;;;;;;8.91;100.00;103035.06;5054867;28;20451;-70
2021/12/15 08:13:39;;;;;;;60.17;24.25;;;;;;;8.89;100.00;103035.06;5052462;28;20075;-70
2021/12/15 08:16:07;;;;;;;63.22;22.60;;;;;;;8.90;100.00;103030.59;5057648;28;20147;-70
2021/12/15 08:18:37;;;;;;;54.38;23.35;;;;;;;8.92;100.00;103031.50;5034040;28;20053;-69
2021/12/15 08:21:07;;;;;;;59.78;23.15;;;;;;;8.89;100.00;103031.50;5054187;28;20084;-69
2021/12/15 08:23:38;;;;;;;53.22;20.67;;;;;;;8.91;100.00;103046.59;5052985;28;20473;-71
2021/12/15 08:26:15;;;;;;;54.72;21.52;;;;;;;8.90;100.00;103036.81;5037882;28;20566;-72
2021/12/15 08:28:43;;;;;;;52.95;21.35;;;;;;;8.93;100.00;103041.28;5052926;28;20548;-70
2021/12/15 08:31:13;;;;;;;50.85;21.95;;;;;;;8.95;100.00;103051.06;5056094;28;20167;-71
2021/12/15 08:33:43;;;;;;;49.88;22.63;;;;;;;8.95;100.00;103042.19;5035372;28;20141;-71
2021/12/15 08:36:13;;;;;;;58.20;21.95;;;;;;;8.97;100.00;103051.09;5053133;28;20281;-69
2021/12/15 08:38:45;;;;;;;61.35;23.75;;;;;;;8.98;100.00;103048.44;5053060;28;20344;-69
2021/12/15 08:41:19;;;;;;;49.13;21.98;;;;;;;9.00;100.00;103045.78;5055694;28;20131;-69
2021/12/15 08:43:49;;;;;;;56.67;20.98;;;;;;;9.00;100.00;103056.44;5050724;28;20060;-69
2021/12/15 08:46:22;;;;;;;47.00;19.48;;;;;;;9.00;100.00;103056.44;5056336;28;20127;-70
2021/12/15 08:48:53;;;;;;;52.50;20.17;;;;;;;9.01;100.00;103062.66;5033302;28;20053;-69
2021/12/15 08:51:25;;;;;;;51.92;22.20;;;;;;;8.99;100.00;103052.03;5057566;28;20146;-69
2021/12/15 08:54:04;;;;;;;45.65;19.17;;;;;;;8.99;100.00;103054.69;5035309;28;20048;-69
2021/12/15 08:56:37;;;;;;;48.72;20.02;;;;;;;9.01;100.00;103060.00;5053806;28;20512;-69
2021/12/15 08:59:07;;;;;;;48.45;21.48;;;;;;;8.96;100.00;103058.19;5052078;28;20045;-70
2021/12/15 09:01:37;;;;;;;47.47;20.17;;;;;;;8.94;100.00;103067.94;5055855;28;20106;-70
2021/12/15 09:04:06;;;;;;;39.40;17.80;;;;;;;8.94;100.00;103061.72;5053082;28;20056;-70
2021/12/15 09:06:36;;;;;;;42.88;17.13;;;;;;;8.94;100.00;103073.25;5053865;28;20048;-69
2021/12/15 09:09:11;;;;;;;39.85;16.30;;;;;;;8.97;100.00;103061.72;5053108;28;20064;-70
2021/12/15 09:11:46;;;;;;;39.45;17.10;;;;;;;8.96;100.00;103070.63;5054606;28;20057;-70
2021/12/15 09:14:15;;;;;;;36.97;16.27;;;;;;;8.97;100.00;103081.28;5054554;28;20406;-70
2021/12/15 09:16:53;;;;;;;37.05;15.90;;;;;;;8.94;100.00;103077.72;5033480;28;20162;-70
2021/12/15 09:19:27;;;;;;;43.25;17.67;;;;;;;8.95;100.00;103085.69;5052890;28;20496;-70
2021/12/15 09:21:58;;;;;;;35.08;16.13;;;;;;;8.95;100.00;103080.34;5052298;28;20109;-70
2021/12/15 09:24:30;;;;;;;36.50;15.98;;;;;;;8.95;100.00;103083.03;5034033;28;20044;-70
2021/12/15 09:27:20;;;;;;;42.63;16.95;;;;;;;8.98;100.00;103084.84;5035044;28;20114;-70
2021/12/15 09:29:54;;;;;;;40.40;17.88;;;;;;;8.97;100.00;103083.94;5039082;28;20090;-70
2021/12/15 09:32:25;;;;;;;48.58;18.50;;;;;;;8.98;100.00;103087.50;5050646;28;20558;-70
2021/12/15 09:35:00;;;;;;;40.78;17.80;;;;;;;8.99;100.00;103099.94;5052131;28;20080;-70
2021/12/15 09:37:32;;;;;;;;;;;;;;;8.99;100.00;103089.31;5054361;28;20045;-71
2021/12/15 09:40:24;;;;;;;43.70;16.17;;;;;;;8.97;100.00;103102.59;5054693;28;20494;-70
2021/12/15 09:43:04;;;;;;;37.47;18.05;;;;;;;8.97;100.00;103104.34;5053608;28;20040;-70
2021/12/15 09:45:46;;;;;;;41.97;17.90;;;;;;;8.97;100.00;103091.94;5053565;28;20162;-70
2021/12/15 10:03:06;;;;;;;38.97;17.40;;;;;;;9.01;100.00;103130.16;5046409;28;20141;-71
2021/12/15 10:05:53;;;;;;;36.20;17.02;;;;;;;9.01;100.00;103126.56;5043458;28;20053;-71
2021/12/15 10:20:01;;;;;;;36.03;14.43;;;;;;;9.19;100.00;103123.22;5046987;28;20140;-70
2021/12/15 10:22:38;;;;;;;33.30;13.80;;;;;;;9.18;100.00;103135.66;5045904;28;20155;-70
2021/12/15 10:25:14;;;;;;;;;;;;;;;9.19;100.00;103124.09;5046618;28;20146;-70
2021/12/15 10:27:50;;;;;;;29.70;13.82;;;;;;;9.18;100.00;103110.75;5046313;28;19955;-70
2021/12/15 10:30:31;;;;;;;32.00;13.25;;;;;;;9.22;100.00;103118.81;5046089;28;20114;-70
2021/12/15 10:33:07;;;;;;;38.63;15.15;;;;;;;9.26;100.00;103133.97;5044201;28;20060;-70
2021/12/15 10:35:41;;;;;;;33.17;14.70;;;;;;;9.26;100.00;103133.06;5049449;28;20057;-70
2021/12/15 10:38:31;;;;;;;35.33;14.43;;;;;;;9.28;100.00;103134.88;5043546;28;20080;-70
2021/12/15 10:41:06;;;;;;;28.95;12.80;;;;;;;9.26;100.00;103133.06;5044205;28;20052;-70
2021/12/15 10:43:39;;;;;;;29.83;12.10;;;;;;;9.27;100.00;103137.50;5042741;28;20528;-70
2021/12/15 10:46:15;;;;;;;24.40;11.93;;;;;;;9.29;100.00;103133.09;5044475;28;20053;-70
2021/12/15 10:48:58;;;;;;;29.17;11.15;;;;;;;9.31;100.00;103134.00;5043114;28;20056;-70
2021/12/15 10:51:53;;;;;;;28.05;10.27;;;;;;;9.33;100.00;103133.13;5055249;28;20994;-70
2021/12/15 10:54:34;;;;;;;22.73;10.60;;;;;;;9.35;100.00;103134.03;5042138;28;20084;-70
2021/12/15 10:57:12;;;;;;;22.38;10.63;;;;;;;9.37;100.00;103125.19;5045561;28;20316;-71
2021/12/15 10:59:48;;;;;;;20.95;9.88;;;;;;;9.43;100.00;103125.22;5044801;28;20051;-72
2021/12/15 11:02:42;;;;;;;21.35;10.60;;;;;;;9.45;100.00;103128.78;5045538;28;20049;-70
2021/12/15 11:05:27;;;;;;;22.80;9.75;;;;;;;9.48;100.00;103135.06;5042334;28;20606;-72
2021/12/15 11:11:12;;;;;;;18.83;9.60;;;;;;;9.49;100.00;103130.63;5032071;28;20057;-71
2021/12/15 11:13:54;;;;;;;17.42;9.07;;;;;;;9.52;100.00;103130.66;5031266;28;20104;-70
2021/12/15 11:16:34;;;;;;;21.50;8.57;;;;;;;9.49;100.00;103127.94;5033353;28;20050;-71
2021/12/15 11:19:04;;;;;;;23.55;8.45;;;;;;;9.53;100.00;103136.00;5032524;28;20049;-75
2021/12/15 11:21:33;;;;;;;17.45;7.82;;;;;;;9.47;100.00;103130.59;5028646;28;20545;-75
2021/12/15 11:24:01;;;;;;;19.25;8.95;;;;;;;9.48;100.00;103136.81;5033576;28;20114;-75
2021/12/15 11:26:31;;;;;;;20.42;7.60;;;;;;;9.50;100.00;103135.03;5029557;28;20049;-71
2021/12/15 11:32:48;;;;;;;20.92;7.82;;;;;;;9.47;100.00;103135.03;5030876;28;20044;-71
2021/12/15 11:35:46;;;;;;;;;;;;;;;9.49;100.00;103127.94;5024822;28;20091;-71
2021/12/15 11:38:35;;;;;;;18.33;7.68;;;;;;;9.47;100.00;103129.72;5031652;28;20014;-71
2021/12/15 11:44:23;;;;;;;23.58;9.77;;;;;;;9.47;100.00;103132.38;5033585;28;20139;-71
2021/12/15 11:53:41;;;;;;;15.52;8.48;;;;;;;9.42;100.00;103132.34;5028668;28;20044;-71
2021/12/15 11:56:36;;;;;;;20.52;9.18;;;;;;;9.37;100.00;103128.72;5029123;28;20676;-72
2021/12/15 11:59:30;;;;;;;21.08;8.30;;;;;;;9.37;100.00;103130.50;5029324;28;20482;-71
2021/12/15 12:02:21;;;;;;;21.00;8.57;;;;;;;9.42;100.00;103126.13;5031915;28;20052;-73
2021/12/15 12:04:53;;;;;;;21.60;8.88;;;;;;;9.44;100.00;103135.91;5028489;28;20060;-73
2021/12/15 12:07:25;;;;;;;20.52;9.32;;;;;;;9.46;100.00;103138.56;5031797;28;20059;-74
2021/12/15 12:09:58;;;;;;;20.77;9.32;;;;;;;9.45;100.00;103134.13;5030040;28;20087;-73
2021/12/15 12:12:32;;;;;;;18.45;8.65;;;;;;;9.50;100.00;103135.97;5027111;28;20053;-73
2021/12/15 12:15:00;;;;;;;19.88;9.55;;;;;;;9.48;100.00;103124.41;5032513;28;20072;-74
2021/12/15 12:17:31;;;;;;;18.77;9.38;;;;;;;9.51;100.00;103127.06;5029081;28;20424;-74
2021/12/15 12:20:02;;;;;;;26.05;9.77;;;;;;;9.49;100.00;103115.50;5029255;28;20052;-73
2021/12/15 12:22:33;;;;;;;22.67;9.55;;;;;;;9.46;100.00;103117.25;5031339;28;20049;-73
2021/12/15 12:25:08;;;;;;;20.98;8.90;;;;;;;9.52;100.00;103104.88;5032755;28;20236;-73
2021/12/15 12:27:39;;;;;;;22.20;9.25;;;;;;;9.52;100.00;103122.66;5029539;28;20059;-74
2021/12/15 12:30:12;;;;;;;17.40;9.13;;;;;;;9.49;100.00;103112.84;5029636;28;20049;-75
2021/12/15 12:32:40;;;;;;;23.33;8.93;;;;;;;9.47;100.00;103111.06;5026959;28;20053;-74
2021/12/15 12:35:11;;;;;;;23.92;8.70;;;;;;;9.53;100.00;103113.75;5029092;28;20091;-73
2021/12/15 12:37:43;;;;;;;18.10;8.43;;;;;;;9.50;100.00;103114.63;5030041;28;20053;-73
2021/12/15 12:40:19;;;;;;;21.85;7.55;;;;;;;9.54;100.00;103115.56;5030641;28;20041;-73
2021/12/15 12:42:49;;;;;;;17.50;7.88;;;;;;;9.53;100.00;103116.44;5028167;28;20046;-72
2021/12/15 12:45:42;;;;;;;20.02;8.05;;;;;;;9.53;100.00;103108.44;5026227;28;20156;-72
2021/12/15 13:04:54;;;;;;;16.83;6.88;;;;;;;9.64;100.00;103100.53;5028938;28;20144;-73
2021/12/15 13:08:04;;;;;;;14.35;6.43;;;;;;;9.66;100.00;103086.31;5029804;28;20105;-73
2021/12/15 13:14:44;;;;;;;19.27;7.78;;;;;;;9.70;100.00;103100.56;5031013;28;20059;-73